Time;durP1;ratioP1;P1;durP2;ratioP2;P2;SDS_P1;SDS_P2;PMS_P1;PMS_P2;Temp;Humidity;BMP_temperature;BMP_pressure;BME280_temperature;BME280_humidity;BME280_pressure;Samples;Min_cycle;Max_cycle;Signal;HPM_P1;HPM_P2
2023/11/19 00:01:19;;;;;;;2.03;1.80;;;9.20;99.90;;;;;;5041012;28;20053;-91
2023/11/19 00:03:44;;;;;;;5.07;2.45;;;9.30;99.90;;;;;;5040617;28;20022;-93
2023/11/19 00:06:11;;;;;;;2.17;1.00;;;9.20;99.90;;;;;;5040409;28;20132;-92
2023/11/19 00:08:36;;;;;;;2.72;1.63;;;9.30;99.90;;;;;;5010377;28;20204;-89
2023/11/19 00:11:03;;;;;;;2.15;1.70;;;9.30;99.90;;;;;;5021693;28;20053;-90
2023/11/19 00:13:28;;;;;;;5.25;1.88;;;9.30;99.90;;;;;;5011121;28;20026;-88
2023/11/19 00:15:54;;;;;;;2.67;1.65;;;9.40;99.90;;;;;;5034811;28;20021;-91
2023/11/19 00:18:20;;;;;;;3.67;2.20;;;9.40;99.90;;;;;;5030255;28;20065;-92
2023/11/19 00:20:46;;;;;;;1.67;1.17;;;9.40;99.90;;;;;;5028984;28;20049;-90
2023/11/19 00:23:11;;;;;;;1.73;1.55;;;9.50;99.90;;;;;;5040507;28;20036;-92
2023/11/19 00:25:40;;;;;;;1.52;1.38;;;9.50;99.90;;;;;;5022653;28;20030;-91
2023/11/19 00:28:06;;;;;;;2.70;1.25;;;9.60;99.90;;;;;;5013604;28;20095;-93
2023/11/19 00:30:31;;;;;;;1.95;1.75;;;9.60;99.90;;;;;;5005634;28;20052;-91
2023/11/19 00:32:57;;;;;;;1.88;1.77;;;9.60;99.90;;;;;;5031249;28;20690;-92
2023/11/19 00:35:22;;;;;;;1.33;1.23;;;9.60;99.90;;;;;;5026909;28;20021;-92
2023/11/19 00:37:53;;;;;;;2.95;1.20;;;9.60;99.90;;;;;;5028045;28;20026;-92
2023/11/19 00:40:21;;;;;;;2.50;1.38;;;9.60;99.90;;;;;;5001755;28;20065;-91
2023/11/19 00:42:47;;;;;;;2.42;2.25;;;9.70;99.90;;;;;;5029348;28;20112;-90
2023/11/19 00:45:14;;;;;;;1.83;1.50;;;9.70;99.90;;;;;;5030032;28;20056;-90
2023/11/19 00:47:39;;;;;;;1.85;1.48;;;9.80;99.90;;;;;;5022886;28;20088;-90
2023/11/19 00:50:06;;;;;;;1.80;1.27;;;9.70;99.90;;;;;;5022473;28;20044;-90
2023/11/19 00:52:31;;;;;;;1.20;1.10;;;9.80;99.90;;;;;;5021093;28;20097;-91
2023/11/19 00:54:57;;;;;;;2.83;1.65;;;9.80;99.90;;;;;;5035922;28;20041;-91
2023/11/19 00:57:24;;;;;;;2.03;0.93;;;9.80;99.90;;;;;;5022293;28;20472;-91
2023/11/19 00:59:49;;;;;;;1.98;1.23;;;9.80;99.90;;;;;;5003832;28;20048;-92
2023/11/19 01:02:16;;;;;;;2.17;1.70;;;9.80;99.90;;;;;;5020724;28;20093;-92
2023/11/19 01:04:41;;;;;;;1.90;1.38;;;9.80;99.90;;;;;;5016230;28;20030;-92
2023/11/19 01:07:12;;;;;;;1.67;1.23;;;9.90;99.90;;;;;;5042193;28;20025;-91
2023/11/19 01:09:41;;;;;;;1.77;1.67;;;9.90;99.90;;;;;;5023066;28;20025;-92
2023/11/19 01:12:07;;;;;;;2.70;1.85;;;9.90;99.90;;;;;;5023324;28;20021;-91
2023/11/19 01:14:33;;;;;;;1.80;1.70;;;9.90;99.90;;;;;;5007125;28;20107;-91
2023/11/19 01:16:58;;;;;;;1.95;1.73;;;9.90;99.90;;;;;;5014855;28;20021;-92
2023/11/19 01:19:24;;;;;;;1.67;1.58;;;9.90;99.90;;;;;;5022372;28;20025;-92
2023/11/19 01:21:50;;;;;;;2.40;1.83;;;10.00;99.90;;;;;;5039473;28;20543;-93
2023/11/19 01:24:16;;;;;;;1.42;1.27;;;10.00;99.90;;;;;;5036959;28;20088;-90
2023/11/19 01:26:45;;;;;;;2.33;1.15;;;10.00;99.90;;;;;;5030729;28;20029;-92
2023/11/19 01:29:13;;;;;;;2.05;1.90;;;10.00;99.90;;;;;;5020344;28;20056;-93
2023/11/19 01:31:40;;;;;;;2.17;1.83;;;10.00;99.90;;;;;;5029791;28;20025;-91
2023/11/19 01:34:06;;;;;;;1.85;1.15;;;10.00;99.90;;;;;;5036257;28;20049;-95
2023/11/19 01:36:31;;;;;;;3.92;1.13;;;10.10;99.90;;;;;;5011932;28;20029;-94
2023/11/19 01:38:57;;;;;;;2.80;1.52;;;10.00;99.90;;;;;;5029578;28;20047;-91
2023/11/19 01:41:22;;;;;;;1.67;1.17;;;10.10;99.90;;;;;;5027259;28;20113;-90
2023/11/19 01:43:48;;;;;;;5.43;1.85;;;10.00;99.90;;;;;;5035544;28;20064;-90
2023/11/19 01:46:14;;;;;;;1.75;1.65;;;10.10;99.90;;;;;;5003050;28;20053;-91
2023/11/19 01:48:44;;;;;;;1.58;1.30;;;10.10;99.90;;;;;;5005577;28;20539;-91
2023/11/19 01:51:10;;;;;;;1.35;1.23;;;10.10;99.90;;;;;;5039864;28;20111;-91
2023/11/19 01:53:45;;;;;;;2.75;1.40;;;10.10;99.90;;;;;;5021386;28;20076;-92
2023/11/19 01:56:14;;;;;;;1.92;1.17;;;10.10;99.90;;;;;;5020759;28;20024;-92
2023/11/19 01:58:41;;;;;;;2.33;1.20;;;10.10;99.90;;;;;;5002159;28;20026;-92
2023/11/19 02:01:07;;;;;;;4.32;1.27;;;10.10;99.90;;;;;;5009636;28;20029;-91
2023/11/19 02:03:33;;;;;;;2.72;1.75;;;10.10;99.90;;;;;;5021749;28;20445;-92
2023/11/19 02:06:03;;;;;;;2.20;1.38;;;10.10;99.90;;;;;;5020655;28;20033;-92
2023/11/19 02:08:29;;;;;;;2.05;1.88;;;10.20;99.90;;;;;;5021717;28;20038;-91
2023/11/19 02:10:56;;;;;;;2.08;1.65;;;10.10;99.90;;;;;;5038698;28;20021;-92
2023/11/19 02:13:22;;;;;;;2.15;1.40;;;10.20;99.90;;;;;;5021705;28;20025;-90
2023/11/19 02:15:48;;;;;;;2.33;1.88;;;10.20;99.90;;;;;;5039517;28;20456;-91
2023/11/19 02:18:21;;;;;;;3.75;1.67;;;10.10;99.90;;;;;;5020957;28;20025;-95
2023/11/19 02:20:48;;;;;;;1.77;1.20;;;10.20;99.90;;;;;;5024330;28;20030;-91
2023/11/19 02:23:14;;;;;;;4.72;1.45;;;10.20;99.90;;;;;;5036458;28;20487;-90
2023/11/19 02:25:40;;;;;;;3.38;1.65;;;10.20;99.90;;;;;;5039122;28;20026;-90
2023/11/19 02:28:07;;;;;;;2.38;1.58;;;10.20;99.90;;;;;;5023209;28;20083;-91
2023/11/19 02:30:32;;;;;;;3.22;2.05;;;10.20;99.90;;;;;;5039006;28;20021;-90
2023/11/19 02:33:05;;;;;;;3.33;2.17;;;10.30;99.90;;;;;;5041865;28;20033;-91
2023/11/19 02:35:31;;;;;;;2.47;1.52;;;10.20;99.90;;;;;;5031472;28;20022;-92
2023/11/19 02:38:03;;;;;;;2.10;2.00;;;10.30;99.90;;;;;;5028294;28;20026;-91
2023/11/19 02:40:29;;;;;;;3.10;2.15;;;10.30;99.90;;;;;;5006353;28;20087;-92
2023/11/19 02:42:55;;;;;;;2.55;1.83;;;10.30;99.90;;;;;;5039790;28;20025;-92
2023/11/19 02:45:25;;;;;;;2.35;2.03;;;10.30;99.90;;;;;;5021700;28;20563;-91
2023/11/19 02:47:52;;;;;;;2.30;1.95;;;10.30;99.90;;;;;;5030396;28;20030;-91
2023/11/19 02:50:27;;;;;;;2.47;1.88;;;10.30;99.90;;;;;;5021794;28;20101;-92
2023/11/19 02:52:58;;;;;;;3.47;1.98;;;10.30;99.90;;;;;;5037518;28;20033;-93
2023/11/19 02:55:25;;;;;;;3.63;2.20;;;10.30;99.90;;;;;;5038780;28;20077;-92
2023/11/19 02:57:52;;;;;;;2.47;2.17;;;10.30;99.90;;;;;;5021717;28;20021;-92
2023/11/19 03:00:23;;;;;;;;;;;10.30;99.90;;;;;;5039417;28;20100;-89
2023/11/19 03:02:58;;;;;;;3.25;1.77;;;10.30;99.90;;;;;;5027629;28;20399;-90
2023/11/19 03:05:25;;;;;;;3.53;2.72;;;10.40;99.90;;;;;;5021711;28;20033;-91
2023/11/19 03:07:53;;;;;;;4.57;2.90;;;10.30;99.90;;;;;;5028890;28;20086;-92
2023/11/19 03:10:19;;;;;;;3.25;1.92;;;10.30;99.90;;;;;;5014800;28;20030;-92
2023/11/19 03:12:47;;;;;;;2.97;2.58;;;10.40;99.90;;;;;;5009560;28;20084;-91
2023/11/19 03:15:14;;;;;;;2.92;2.38;;;10.40;99.90;;;;;;5032451;28;20440;-91
2023/11/19 03:17:41;;;;;;;2.30;2.10;;;10.40;99.90;;;;;;5005249;28;20046;-91
2023/11/19 03:20:17;;;;;;;2.95;1.67;;;10.40;99.90;;;;;;5025044;28;20354;-93
2023/11/19 03:22:43;;;;;;;3.70;2.53;;;10.40;99.90;;;;;;5041801;28;20025;-91
2023/11/19 03:25:12;;;;;;;2.88;2.33;;;10.40;99.90;;;;;;5041232;28;20559;-92
2023/11/19 03:27:41;;;;;;;2.67;1.95;;;10.40;99.90;;;;;;5024158;28;20449;-93
2023/11/19 03:30:10;;;;;;;4.43;2.15;;;10.40;99.90;;;;;;5024117;28;20053;-93
2023/11/19 03:32:36;;;;;;;3.42;2.38;;;10.40;99.90;;;;;;5038243;28;20452;-92
2023/11/19 03:35:04;;;;;;;13.13;3.10;;;10.40;99.90;;;;;;5004322;28;20058;-92
2023/11/19 03:37:36;;;;;;;3.50;1.80;;;10.40;99.90;;;;;;5012644;28;20037;-92
2023/11/19 03:40:02;;;;;;;2.60;2.40;;;10.50;99.90;;;;;;5019817;28;20029;-92
2023/11/19 03:42:29;;;;;;;3.90;2.28;;;10.50;99.90;;;;;;5041818;28;20089;-91
2023/11/19 03:44:58;;;;;;;2.53;2.03;;;10.50;99.90;;;;;;5035647;28;20026;-93
2023/11/19 03:47:24;;;;;;;2.15;1.95;;;10.50;99.90;;;;;;5041219;28;20036;-91
2023/11/19 03:49:52;;;;;;;2.47;1.75;;;10.50;99.90;;;;;;5043187;28;20025;-92
2023/11/19 03:52:19;;;;;;;3.13;1.88;;;10.60;99.90;;;;;;5024142;28;20085;-92
2023/11/19 03:54:48;;;;;;;3.13;1.85;;;10.60;99.90;;;;;;5036964;28;20022;-92
2023/11/19 03:57:15;;;;;;;3.03;2.47;;;10.60;99.90;;;;;;5013444;28;20076;-92
2023/11/19 03:59:41;;;;;;;2.60;1.70;;;10.60;99.90;;;;;;5041295;28;20049;-92
2023/11/19 04:02:10;;;;;;;2.83;1.90;;;10.50;99.90;;;;;;5023110;28;20052;-95
2023/11/19 04:04:35;;;;;;;2.25;1.40;;;10.60;99.90;;;;;;5041267;28;20033;-90
2023/11/19 04:07:03;;;;;;;2.47;1.75;;;10.60;99.90;;;;;;5042303;28;20111;-93
2023/11/19 04:09:30;;;;;;;3.05;1.67;;;10.60;99.90;;;;;;5024708;28;20026;-93
2023/11/19 04:11:56;;;;;;;4.18;1.95;;;10.60;99.90;;;;;;5024458;28;20021;-90
2023/11/19 04:14:24;;;;;;;3.03;2.40;;;10.60;99.90;;;;;;5039706;28;20112;-91
2023/11/19 04:16:56;;;;;;;2.50;1.33;;;10.60;99.90;;;;;;5036044;28;20041;-91
2023/11/19 04:19:22;;;;;;;2.80;1.88;;;10.60;99.90;;;;;;5016092;28;20025;-92
2023/11/19 04:21:55;;;;;;;2.08;1.52;;;10.70;99.90;;;;;;5025105;28;20267;-91
2023/11/19 04:24:21;;;;;;;2.05;1.60;;;10.70;99.90;;;;;;5042181;28;20029;-92
2023/11/19 04:26:52;;;;;;;2.75;1.88;;;10.70;99.90;;;;;;5024329;28;20240;-90
2023/11/19 04:29:28;;;;;;;;;;;;;;;;;;;;;
2023/11/19 04:31:54;;;;;;;4.03;1.52;;;10.70;99.90;;;;;;5042255;28;20073;-89
2023/11/19 04:34:23;;;;;;;2.28;1.60;;;10.70;99.90;;;;;;5022212;28;20033;-93
2023/11/19 04:36:52;;;;;;;2.92;1.58;;;10.70;99.90;;;;;;5021821;28;20041;-93
2023/11/19 04:39:21;;;;;;;2.60;1.40;;;10.70;99.90;;;;;;5034276;28;20491;-90
2023/11/19 04:41:55;;;;;;;3.05;1.52;;;10.70;99.90;;;;;;5009524;28;20037;-92
2023/11/19 04:44:22;;;;;;;2.05;1.80;;;10.80;99.90;;;;;;5040505;28;20033;-92
2023/11/19 04:46:47;;;;;;;2.00;1.65;;;10.80;99.90;;;;;;5041596;28;20049;-91
2023/11/19 04:49:16;;;;;;;1.92;1.35;;;10.90;99.90;;;;;;5023940;28;20022;-91
2023/11/19 04:51:43;;;;;;;1.90;1.50;;;10.90;99.90;;;;;;5037774;28;20022;-92
2023/11/19 04:54:10;;;;;;;2.28;1.40;;;10.90;99.90;;;;;;5041105;28;20020;-92
2023/11/19 04:56:39;;;;;;;1.80;1.30;;;10.90;99.90;;;;;;5033716;28;20030;-91
2023/11/19 04:59:08;;;;;;;2.30;0.93;;;11.00;99.90;;;;;;5024076;28;20033;-89
2023/11/19 05:01:39;;;;;;;2.28;1.48;;;11.00;99.90;;;;;;5025056;28;20041;-92
2023/11/19 05:04:08;;;;;;;1.65;1.55;;;11.10;99.90;;;;;;5033242;28;20097;-90
2023/11/19 05:06:35;;;;;;;1.15;0.93;;;11.10;99.90;;;;;;5021495;28;20033;-91
2023/11/19 05:09:01;;;;;;;1.30;1.17;;;11.10;99.90;;;;;;5023578;28;20045;-92
2023/11/19 05:11:28;;;;;;;1.73;1.27;;;11.20;99.90;;;;;;5021626;28;20049;-92
2023/11/19 05:13:54;;;;;;;2.20;1.13;;;11.30;99.90;;;;;;5039568;28;20025;-90
2023/11/19 05:16:20;;;;;;;1.95;1.00;;;11.30;99.90;;;;;;5020463;28;20074;-91
2023/11/19 05:18:49;;;;;;;2.20;1.00;;;11.30;99.90;;;;;;5020111;28;20013;-92
2023/11/19 05:21:14;;;;;;;1.33;1.20;;;11.30;99.90;;;;;;5019846;28;20021;-92
2023/11/19 05:23:49;;;;;;;1.02;0.63;;;11.40;99.90;;;;;;5040687;28;20365;-91
2023/11/19 05:26:26;;;;;;;2.83;1.60;;;11.40;99.90;;;;;;5032635;28;20018;-92
2023/11/19 05:28:52;;;;;;;1.48;1.30;;;11.40;99.90;;;;;;5031836;28;20049;-91
2023/11/19 05:31:18;;;;;;;1.42;1.02;;;11.40;99.90;;;;;;5040639;28;20029;-92
2023/11/19 05:33:44;;;;;;;1.15;0.85;;;11.40;99.90;;;;;;5022674;28;20013;-93
2023/11/19 05:36:12;;;;;;;1.35;0.88;;;11.40;99.90;;;;;;5013802;28;20496;-92
2023/11/19 05:38:41;;;;;;;1.60;1.20;;;11.50;99.90;;;;;;5020040;28;20050;-92
2023/11/19 05:41:07;;;;;;;1.50;1.40;;;11.50;99.90;;;;;;5010528;28;20057;-92
2023/11/19 05:43:33;;;;;;;1.20;0.93;;;11.50;99.90;;;;;;5014218;28;20033;-91
2023/11/19 05:45:59;;;;;;;1.95;0.95;;;11.50;99.90;;;;;;5021586;28;20115;-92
2023/11/19 05:48:27;;;;;;;1.02;0.80;;;11.60;99.90;;;;;;5037974;28;20376;-91
2023/11/19 05:50:53;;;;;;;1.60;0.90;;;11.60;99.90;;;;;;5021176;28;20512;-91
2023/11/19 05:53:19;;;;;;;1.10;1.08;;;11.50;99.90;;;;;;5017029;28;20025;-92
2023/11/19 05:55:48;;;;;;;1.17;0.98;;;11.50;99.90;;;;;;5029699;28;20048;-91
2023/11/19 05:58:14;;;;;;;0.90;0.90;;;11.60;99.90;;;;;;5036237;28;20029;-91
2023/11/19 06:00:42;;;;;;;2.03;0.82;;;11.60;99.90;;;;;;5028860;28;20392;-91
2023/11/19 06:03:08;;;;;;;2.53;0.93;;;11.60;99.90;;;;;;5035678;28;20034;-91
2023/11/19 06:05:34;;;;;;;1.10;0.95;;;11.70;99.90;;;;;;5021017;28;20029;-91
2023/11/19 06:08:00;;;;;;;0.95;0.90;;;11.70;99.90;;;;;;5032236;28;20029;-92
2023/11/19 06:10:31;;;;;;;0.85;0.68;;;11.70;99.90;;;;;;5038038;28;20036;-94
2023/11/19 06:13:00;;;;;;;1.45;0.88;;;11.70;99.90;;;;;;5022118;28;20035;-91
2023/11/19 06:15:29;;;;;;;2.80;1.15;;;11.70;99.90;;;;;;5032458;28;20018;-92
2023/11/19 06:17:55;;;;;;;1.67;1.58;;;11.70;99.90;;;;;;5039753;28;20081;-90
2023/11/19 06:20:21;;;;;;;1.08;0.98;;;11.80;99.90;;;;;;5037119;28;20069;-92
2023/11/19 06:22:46;;;;;;;1.73;1.63;;;11.70;99.90;;;;;;5017220;28;20435;-93
2023/11/19 06:25:15;;;;;;;1.20;1.05;;;11.70;99.90;;;;;;5007549;28;20128;-91
2023/11/19 06:27:42;;;;;;;1.65;1.55;;;11.70;99.90;;;;;;5039345;28;20556;-92
2023/11/19 06:30:08;;;;;;;1.30;0.98;;;11.60;99.90;;;;;;5017906;28;20049;-92
2023/11/19 06:32:40;;;;;;;1.92;1.30;;;11.60;99.90;;;;;;5018534;28;20026;-92
2023/11/19 06:35:06;;;;;;;1.95;0.82;;;11.60;99.90;;;;;;5024997;28;20025;-92
2023/11/19 06:37:32;;;;;;;1.20;1.10;;;11.60;99.90;;;;;;5036973;28;20030;-92
2023/11/19 06:39:59;;;;;;;1.58;0.93;;;11.60;99.90;;;;;;5025687;28;20096;-91
2023/11/19 06:42:24;;;;;;;1.45;1.35;;;11.70;99.90;;;;;;5018366;28;20032;-92
2023/11/19 06:44:51;;;;;;;2.38;1.42;;;11.70;99.90;;;;;;5021870;28;20057;-92
2023/11/19 06:47:17;;;;;;;1.23;0.95;;;11.70;99.90;;;;;;5023127;28;20673;-93
2023/11/19 06:49:46;;;;;;;1.65;1.55;;;11.70;99.90;;;;;;5023765;28;20029;-93
2023/11/19 06:52:11;;;;;;;1.55;0.45;;;11.80;99.90;;;;;;5013352;28;20097;-91
2023/11/19 06:54:39;;;;;;;2.05;1.63;;;11.70;99.90;;;;;;5032596;28;20047;-92
2023/11/19 06:57:05;;;;;;;0.80;0.80;;;11.80;99.90;;;;;;5035236;28;20048;-90
2023/11/19 06:59:31;;;;;;;2.40;1.27;;;11.90;99.90;;;;;;5030595;28;20491;-93
2023/11/19 07:01:56;;;;;;;0.88;0.85;;;11.90;99.90;;;;;;5036101;28;20029;-90
2023/11/19 07:04:22;;;;;;;1.17;0.75;;;11.90;99.90;;;;;;5019344;28;20030;-92
2023/11/19 07:06:48;;;;;;;1.00;0.90;;;12.00;99.90;;;;;;5034318;28;20037;-93
2023/11/19 07:09:14;;;;;;;2.25;0.93;;;12.00;99.90;;;;;;5033755;28;20031;-92
2023/11/19 07:11:41;;;;;;;24.98;18.50;;;12.00;99.90;;;;;;5040675;28;20026;-91
2023/11/19 07:20:08;;;;;;;1.52;1.42;;;11.90;99.90;;;;;;5044185;28;20036;-92
2023/11/19 07:22:34;;;;;;;0.82;0.57;;;11.90;99.90;;;;;;5027517;28;20057;-91
2023/11/19 07:25:00;;;;;;;1.15;1.05;;;11.90;99.90;;;;;;5044055;28;20032;-94
2023/11/19 07:27:26;;;;;;;1.23;0.73;;;11.90;99.90;;;;;;5007908;28;20566;-92
2023/11/19 07:29:52;;;;;;;1.17;1.08;;;11.90;99.90;;;;;;5023193;28;20487;-93
2023/11/19 07:32:17;;;;;;;0.88;0.85;;;11.90;99.90;;;;;;5018787;28;20048;-92
2023/11/19 07:34:44;;;;;;;1.15;0.88;;;12.10;99.90;;;;;;5023637;28;20036;-92
2023/11/19 07:37:09;;;;;;;0.82;0.75;;;12.00;99.90;;;;;;5029187;28;20116;-93
2023/11/19 07:39:37;;;;;;;0.80;0.80;;;12.10;99.90;;;;;;5026911;28;20049;-92
2023/11/19 07:42:03;;;;;;;2.95;0.60;;;12.10;99.90;;;;;;5044455;28;20034;-91
2023/11/19 07:44:29;;;;;;;0.70;0.63;;;12.10;99.90;;;;;;5041747;28;20029;-93
2023/11/19 07:46:55;;;;;;;1.08;1.08;;;12.20;99.90;;;;;;5030373;28;20036;-93
2023/11/19 07:49:23;;;;;;;2.03;1.27;;;12.20;99.90;;;;;;5036477;28;20033;-93
2023/11/19 07:51:49;;;;;;;1.77;1.67;;;12.30;99.90;;;;;;5042834;28;20036;-93
2023/11/19 07:54:17;;;;;;;1.38;0.75;;;12.30;99.90;;;;;;5024256;28;20021;-92
2023/11/19 07:56:42;;;;;;;0.90;0.70;;;12.30;99.90;;;;;;5028293;28;20033;-92
2023/11/19 07:59:08;;;;;;;1.50;1.40;;;12.30;99.90;;;;;;5042515;28;20056;-92
2023/11/19 08:01:34;;;;;;;0.70;0.70;;;12.30;99.90;;;;;;5033244;28;20034;-93
2023/11/19 08:04:01;;;;;;;2.33;1.13;;;12.30;99.90;;;;;;5015466;28;20084;-95
2023/11/19 08:06:27;;;;;;;0.90;0.77;;;12.20;99.90;;;;;;5041972;28;20105;-94
2023/11/19 08:08:53;;;;;;;1.10;0.88;;;12.20;99.90;;;;;;5037692;28;20129;-94
2023/11/19 08:11:21;;;;;;;0.88;0.82;;;12.20;99.90;;;;;;5024857;28;20029;-93
2023/11/19 08:13:47;;;;;;;1.70;0.75;;;12.20;99.90;;;;;;5024067;28;20037;-93
2023/11/19 08:16:14;;;;;;;1.63;0.75;;;12.20;99.90;;;;;;5021976;28;20025;-93
2023/11/19 08:18:44;;;;;;;2.35;1.00;;;12.20;99.90;;;;;;5022523;28;20469;-93
2023/11/19 08:21:13;;;;;;;0.80;0.77;;;12.20;99.90;;;;;;5032820;28;20080;-92
2023/11/19 08:23:39;;;;;;;1.50;0.95;;;12.20;99.90;;;;;;5037107;28;20033;-93
2023/11/19 08:26:05;;;;;;;0.88;0.77;;;12.30;99.90;;;;;;5006224;28;20030;-93
2023/11/19 08:28:34;;;;;;;0.90;0.77;;;12.20;99.90;;;;;;5035052;28;20066;-94
2023/11/19 08:31:00;;;;;;;1.13;1.05;;;12.30;99.90;;;;;;5016553;28;20021;-93
2023/11/19 08:33:29;;;;;;;2.03;1.38;;;12.30;99.90;;;;;;5023229;28;20052;-93
2023/11/19 08:36:03;;;;;;;1.83;1.17;;;12.30;99.90;;;;;;5006225;28;20033;-94
2023/11/19 08:38:29;;;;;;;1.70;0.73;;;12.40;99.90;;;;;;5026922;28;20026;-94
2023/11/19 08:41:01;;;;;;;1.67;1.00;;;12.40;99.90;;;;;;5031972;28;20117;-93
2023/11/19 08:43:27;;;;;;;1.02;0.93;;;12.40;99.90;;;;;;5016424;28;20692;-94
2023/11/19 08:45:53;;;;;;;0.85;0.70;;;12.50;99.90;;;;;;5020145;28;20022;-94
2023/11/19 08:48:21;;;;;;;1.00;0.63;;;12.40;99.90;;;;;;5021641;28;20141;-94
2023/11/19 08:50:47;;;;;;;1.85;0.77;;;12.40;99.90;;;;;;5019439;28;20105;-94
2023/11/19 08:53:13;;;;;;;1.33;1.15;;;12.40;99.90;;;;;;5032090;28;20048;-93
2023/11/19 08:55:44;;;;;;;1.77;1.13;;;12.30;99.90;;;;;;5026659;28;20048;-91
2023/11/19 08:58:23;;;;;;;1.23;0.80;;;12.30;99.90;;;;;;5024413;28;20038;-93
2023/11/19 09:00:52;;;;;;;2.28;1.58;;;12.30;99.90;;;;;;5011659;28;20097;-92
2023/11/19 09:03:24;;;;;;;1.48;0.95;;;12.20;99.90;;;;;;5019640;28;20026;-92
2023/11/19 09:05:51;;;;;;;1.13;0.98;;;12.30;99.90;;;;;;5023774;28;20025;-94
2023/11/19 09:08:17;;;;;;;1.58;1.08;;;12.30;99.90;;;;;;5028870;28;20037;-95
2023/11/19 09:10:48;;;;;;;1.05;0.80;;;12.30;99.90;;;;;;5029355;28;20009;-95
2023/11/19 09:13:14;;;;;;;1.42;1.30;;;12.30;99.90;;;;;;5034493;28;20084;-95
2023/11/19 09:15:41;;;;;;;1.02;0.68;;;12.30;99.90;;;;;;5031374;28;20045;-95
2023/11/19 09:18:07;;;;;;;1.75;1.15;;;12.30;99.90;;;;;;5027395;28;20093;-95
2023/11/19 09:20:38;;;;;;;1.20;1.08;;;12.30;99.90;;;;;;5019207;28;20169;-93
2023/11/19 09:23:08;;;;;;;2.33;1.02;;;12.30;99.90;;;;;;5010104;28;20030;-94
2023/11/19 09:25:42;;;;;;;1.38;0.93;;;12.40;99.90;;;;;;5030000;28;20078;-95
2023/11/19 09:28:08;;;;;;;2.28;1.23;;;12.40;99.90;;;;;;5026624;28;20040;-95
2023/11/19 09:30:40;;;;;;;1.10;1.00;;;12.40;99.90;;;;;;5026231;28;20041;-95
2023/11/19 09:33:14;;;;;;;2.15;1.00;;;12.50;99.90;;;;;;5028475;28;20434;-94
2023/11/19 09:35:40;;;;;;;3.50;1.35;;;12.60;99.90;;;;;;5035250;28;20021;-93
2023/11/19 09:38:09;;;;;;;1.23;1.13;;;12.70;99.90;;;;;;5031163;28;20120;-93
2023/11/19 09:40:38;;;;;;;3.35;1.58;;;12.80;99.90;;;;;;5031322;28;20022;-94
2023/11/19 09:43:07;;;;;;;1.90;1.27;;;12.80;99.90;;;;;;5014196;28;20120;-93
2023/11/19 09:46:26;;;;;;;1.55;1.38;;;12.90;99.90;;;;;;5015622;28;20034;-95
2023/11/19 09:48:54;;;;;;;;;;;12.90;99.90;;;;;;5018200;28;20068;-94
2023/11/19 09:51:21;;;;;;;1.80;1.17;;;13.10;99.90;;;;;;5033962;28;19912;-93
2023/11/19 09:53:47;;;;;;;1.25;0.93;;;13.20;99.90;;;;;;5015980;28;20030;-93
2023/11/19 09:56:16;;;;;;;2.03;1.10;;;13.30;99.90;;;;;;5032252;28;20040;-95
2023/11/19 09:58:42;;;;;;;2.65;1.70;;;13.40;99.90;;;;;;5033698;28;20053;-93
2023/11/19 10:01:11;;;;;;;3.28;1.50;;;13.40;99.90;;;;;;5010974;28;20026;-96
2023/11/19 10:03:39;;;;;;;1.70;1.10;;;13.40;99.90;;;;;;5030749;28;20029;-92
2023/11/19 10:06:07;;;;;;;2.05;1.27;;;13.50;99.90;;;;;;5017306;28;20045;-94
2023/11/19 10:08:39;;;;;;;;;;;13.60;99.90;;;;;;5040619;28;20022;-95
2023/11/19 10:11:06;;;;;;;1.95;1.10;;;13.90;99.90;;;;;;5035312;28;19920;-94
2023/11/19 10:13:40;;;;;;;1.38;1.10;;;14.10;99.90;;;;;;5017132;28;20025;-94
2023/11/19 10:16:12;;;;;;;1.77;0.80;;;14.10;99.90;;;;;;5019470;28;20043;-92
2023/11/19 10:18:51;;;;;;;1.77;1.05;;;14.10;99.90;;;;;;5033361;28;20026;-94
2023/11/19 10:21:27;;;;;;;1.38;0.93;;;14.10;99.90;;;;;;5016199;28;20026;-94
2023/11/19 10:24:15;;;;;;;2.13;0.90;;;14.30;99.90;;;;;;5023495;28;20217;-94
2023/11/19 10:26:42;;;;;;;2.70;1.10;;;14.60;99.90;;;;;;5016499;28;20063;-95
2023/11/19 10:29:14;;;;;;;4.63;1.27;;;14.80;99.90;;;;;;5016415;28;20029;-95
2023/11/19 10:31:55;;;;;;;2.28;1.10;;;14.90;99.90;;;;;;5016510;28;20038;-94
2023/11/19 10:34:30;;;;;;;;;;;14.90;99.90;;;;;;5038012;28;20018;-95
2023/11/19 10:37:04;;;;;;;2.45;0.98;;;14.90;99.90;;;;;;5014942;28;19928;-93
2023/11/19 10:39:55;;;;;;;2.47;0.80;;;14.80;99.90;;;;;;5034417;28;20078;-95
2023/11/19 10:42:24;;;;;;;1.55;1.10;;;14.70;99.90;;;;;;5021708;28;20029;-94
2023/11/19 10:44:56;;;;;;;2.55;0.88;;;14.60;99.90;;;;;;5021963;28;20037;-95
2023/11/19 10:47:26;;;;;;;2.22;1.30;;;14.70;99.90;;;;;;5025222;28;20030;-93
2023/11/19 10:49:51;;;;;;;1.77;1.10;;;14.90;99.90;;;;;;5024437;28;20045;-93
2023/11/19 10:52:21;;;;;;;3.05;1.55;;;14.80;99.90;;;;;;5014311;28;20092;-94
2023/11/19 10:54:51;;;;;;;2.75;1.52;;;14.70;99.90;;;;;;5018774;28;20026;-95
2023/11/19 10:57:26;;;;;;;1.95;1.20;;;14.50;99.90;;;;;;5014887;28;20018;-95
2023/11/19 11:00:01;;;;;;;1.63;1.00;;;14.40;99.90;;;;;;5031623;28;20124;-94
2023/11/19 11:02:28;;;;;;;2.10;1.08;;;14.30;99.90;;;;;;5030151;28;20034;-95
2023/11/19 11:04:55;;;;;;;4.88;1.02;;;14.40;99.90;;;;;;5031721;28;20042;-96
2023/11/19 11:07:26;;;;;;;3.13;1.20;;;14.30;99.90;;;;;;5027466;28;20037;-93
2023/11/19 11:09:52;;;;;;;1.33;0.80;;;14.30;99.90;;;;;;5018516;28;20136;-95
2023/11/19 11:12:25;;;;;;;2.95;1.27;;;14.30;99.90;;;;;;5040274;28;20021;-96
2023/11/19 11:15:00;;;;;;;2.20;1.48;;;14.40;99.90;;;;;;5019056;28;20033;-96
2023/11/19 11:17:34;;;;;;;2.08;1.60;;;14.60;99.90;;;;;;5014568;28;20088;-93
2023/11/19 11:20:11;;;;;;;3.28;1.38;;;14.70;99.90;;;;;;5012957;28;20025;-94
2023/11/19 11:22:55;;;;;;;1.52;1.13;;;15.10;99.90;;;;;;5021178;28;20049;-94
2023/11/19 11:25:38;;;;;;;2.92;1.55;;;15.60;99.90;;;;;;5028519;28;20033;-94
2023/11/19 11:28:47;;;;;;;;;;;;;;;;;;;;;
2023/11/19 11:31:16;;;;;;;3.42;0.93;;;15.60;99.90;;;;;;5051112;22;20112;-94
2023/11/19 11:34:06;;;;;;;2.28;1.45;;;15.80;99.90;;;;;;5030204;28;20088;-95
2023/11/19 11:37:05;;;;;;;3.65;1.15;;;15.80;99.90;;;;;;5003949;28;20026;-93
2023/11/19 11:39:31;;;;;;;3.03;1.13;;;15.90;99.90;;;;;;4999645;28;20046;-95
2023/11/19 11:42:34;;;;;;;1.48;1.00;;;16.20;99.90;;;;;;4988005;28;20022;-95
2023/11/19 11:47:54;;;;;;;1.60;0.98;;;16.50;99.80;;;;;;5014377;28;20045;-93
2023/11/19 11:50:20;;;;;;;2.47;1.27;;;16.50;99.00;;;;;;5020906;28;20045;-94
2023/11/19 11:52:58;;;;;;;1.85;0.73;;;16.50;97.80;;;;;;5003329;28;20029;-94
2023/11/19 11:55:29;;;;;;;4.22;1.52;;;16.00;99.90;;;;;;5007182;28;20026;-96
2023/11/19 11:57:55;;;;;;;2.50;1.13;;;15.60;99.90;;;;;;5017292;28;20062;-96
2023/11/19 12:00:30;;;;;;;1.73;0.82;;;15.50;99.90;;;;;;5003943;28;20025;-93
2023/11/19 12:02:57;;;;;;;1.65;0.82;;;15.60;99.90;;;;;;5021227;28;20061;-94
2023/11/19 12:05:29;;;;;;;1.83;1.20;;;15.80;99.90;;;;;;5023052;28;20041;-94
2023/11/19 12:08:06;;;;;;;2.13;1.40;;;16.40;99.90;;;;;;4992670;28;20102;-93
2023/11/19 12:10:51;;;;;;;1.60;1.20;;;16.90;95.40;;;;;;5008194;28;20457;-94
2023/11/19 12:13:18;;;;;;;3.13;1.02;;;17.50;94.50;;;;;;5009002;28;20045;-94
2023/11/19 12:15:56;;;;;;;;;;;17.60;90.40;;;;;;5008874;28;20034;-94
2023/11/19 12:18:27;;;;;;;2.28;0.85;;;16.80;93.40;;;;;;4992757;28;19916;-96
2023/11/19 12:21:00;;;;;;;2.60;1.33;;;16.30;96.40;;;;;;4995594;28;20117;-93
2023/11/19 12:23:28;;;;;;;1.15;0.80;;;16.00;99.90;;;;;;5015136;28;20030;-94
2023/11/19 12:26:05;;;;;;;3.38;1.38;;;16.20;97.50;;;;;;4993425;28;20072;-95
2023/11/19 12:29:05;;;;;;;2.40;1.90;;;16.00;98.60;;;;;;5000342;28;20022;-94
2023/11/19 12:31:44;;;;;;;1.55;1.27;;;15.80;97.30;;;;;;5018066;28;20038;-94
2023/11/19 12:34:12;;;;;;;2.35;0.80;;;15.60;98.00;;;;;;4998808;28;20026;-93
2023/11/19 12:36:38;;;;;;;2.60;1.25;;;15.50;94.40;;;;;;5001661;28;20045;-93
2023/11/19 12:39:12;;;;;;;2.20;1.00;;;15.50;92.00;;;;;;4999925;28;20045;-92
2023/11/19 12:41:52;;;;;;;1.98;0.60;;;15.50;88.60;;;;;;5003248;28;20370;-94
2023/11/19 12:44:18;;;;;;;4.00;1.30;;;15.60;90.00;;;;;;4999949;28;20484;-94
2023/11/19 12:46:49;;;;;;;3.50;0.85;;;15.80;90.60;;;;;;5018526;28;20049;-94
2023/11/19 12:49:15;;;;;;;4.65;1.10;;;15.70;87.30;;;;;;4993585;28;20027;-93
2023/11/19 12:51:41;;;;;;;3.10;0.88;;;15.70;87.30;;;;;;4998511;28;20002;-96
2023/11/19 12:54:13;;;;;;;4.38;1.70;;;15.70;87.60;;;;;;5000289;28;20050;-93
2023/11/19 12:56:54;;;;;;;2.45;0.80;;;16.10;85.80;;;;;;4978960;28;20026;-93
2023/11/19 12:59:20;;;;;;;3.33;0.70;;;16.30;84.80;;;;;;4997571;28;20057;-94
2023/11/19 13:05:19;;;;;;;1.83;0.88;;;16.00;79.90;;;;;;5008462;28;20026;-93
2023/11/19 13:07:45;;;;;;;1.55;1.08;;;16.50;81.80;;;;;;5005696;28;20036;-92
2023/11/19 13:10:11;;;;;;;2.85;1.30;;;16.70;77.30;;;;;;5001741;28;20045;-93
2023/11/19 13:12:37;;;;;;;3.20;0.90;;;17.10;74.90;;;;;;4998559;28;20096;-94